Time;durP1;ratioP1;P1;durP2;ratioP2;P2;SDS_P1;SDS_P2;PMS_P1;PMS_P2;Temp;Humidity;BMP_temperature;BMP_pressure;BME280_temperature;BME280_humidity;BME280_pressure;Samples;Min_cycle;Max_cycle;Signal;HPM_P1;HPM_P2
2021/01/26 00:01:20;;;;;;;21.70;6.30;;;;;;;;;;5133317;27;20040;-86
2021/01/26 00:03:45;;;;;;;18.93;5.50;;;;;;;;;;5133391;27;20027;-85
2021/01/26 00:06:11;;;;;;;26.70;5.93;;;;;;;;;;5133274;27;20027;-86
2021/01/26 00:08:36;;;;;;;21.93;5.63;;;;;;;;;;5133073;27;20031;-86
2021/01/26 00:11:03;;;;;;;21.63;5.70;;;;;;;;;;5133227;27;20066;-86
2021/01/26 00:13:28;;;;;;;18.27;5.80;;;;;;;;;;5133114;27;20066;-85
2021/01/26 00:15:53;;;;;;;20.23;5.77;;;;;;;;;;5133190;27;20034;-85
2021/01/26 00:18:19;;;;;;;19.47;5.13;;;;;;;;;;5133038;27;20375;-86
2021/01/26 00:20:44;;;;;;;22.07;5.53;;;;;;;;;;5133230;27;20525;-86
2021/01/26 00:23:09;;;;;;;20.53;5.57;;;;;;;;;;5133048;28;20110;-86
2021/01/26 00:25:37;;;;;;;19.57;5.43;;;;;;;;;;5132946;28;20119;-86
2021/01/26 00:28:04;;;;;;;23.47;5.33;;;;;;;;;;5132210;28;20113;-86
2021/01/26 00:30:30;;;;;;;16.13;4.90;;;;;;;;;;5129279;28;20069;-86
2021/01/26 00:32:58;;;;;;;14.00;4.43;;;;;;;;;;5120629;28;20030;-86
2021/01/26 00:35:23;;;;;;;17.83;5.63;;;;;;;;;;5133845;27;20110;-86
2021/01/26 00:37:49;;;;;;;19.40;5.20;;;;;;;;;;5137201;27;20550;-86
2021/01/26 00:40:15;;;;;;;20.13;4.93;;;;;;;;;;5137312;27;20023;-86
2021/01/26 00:42:40;;;;;;;20.77;4.83;;;;;;;;;;5137011;27;20022;-86
2021/01/26 00:45:06;;;;;;;19.13;5.03;;;;;;;;;;5137216;27;20026;-86
2021/01/26 00:47:31;;;;;;;15.67;5.43;;;;;;;;;;5136443;27;20023;-86
2021/01/26 00:49:57;;;;;;;16.30;4.33;;;;;;;;;;5138419;27;20469;-86
2021/01/26 00:52:22;;;;;;;18.47;4.03;;;;;;;;;;5137035;27;20023;-86
2021/01/26 00:54:47;;;;;;;19.10;4.70;;;;;;;;;;5136834;27;20470;-86
2021/01/26 00:57:18;;;;;;;20.20;4.67;;;;;;;;;;5136564;27;20023;-86
2021/01/26 00:59:44;;;;;;;26.07;4.80;;;;;;;;;;5136965;27;20014;-86
2021/01/26 01:02:09;;;;;;;19.07;4.93;;;;;;;;;;5136904;27;20381;-86
2021/01/26 01:04:36;;;;;;;17.50;4.70;;;;;;;;;;5136676;27;20019;-86
2021/01/26 01:07:01;;;;;;;24.63;4.70;;;;;;;;;;5133551;27;20023;-86
2021/01/26 01:09:26;;;;;;;21.43;4.13;;;;;;;;;;5136471;27;20041;-86
2021/01/26 01:11:51;;;;;;;16.13;4.30;;;;;;;;;;5136593;27;20458;-86
2021/01/26 01:14:16;;;;;;;16.40;4.57;;;;;;;;;;5122001;27;20130;-85
2021/01/26 01:16:41;;;;;;;21.90;4.57;;;;;;;;;;5136409;27;20433;-86
2021/01/26 01:19:07;;;;;;;19.93;4.73;;;;;;;;;;5136502;27;20011;-86
2021/01/26 01:21:32;;;;;;;13.77;3.87;;;;;;;;;;5137552;27;20015;-86
2021/01/26 01:23:57;;;;;;;13.40;4.10;;;;;;;;;;5136158;27;20007;-86
2021/01/26 01:26:22;;;;;;;17.10;4.23;;;;;;;;;;5136366;27;20016;-85
2021/01/26 01:28:47;;;;;;;22.67;4.30;;;;;;;;;;5136269;27;20023;-86
2021/01/26 01:31:12;;;;;;;14.87;4.23;;;;;;;;;;5136268;27;20023;-86
2021/01/26 01:33:39;;;;;;;16.07;4.57;;;;;;;;;;5136098;27;20097;-86
2021/01/26 01:36:04;;;;;;;13.70;3.50;;;;;;;;;;5137526;27;20026;-85
2021/01/26 01:38:29;;;;;;;17.27;4.03;;;;;;;;;;5136133;27;20012;-86
2021/01/26 01:40:55;;;;;;;20.37;4.07;;;;;;;;;;5135842;27;20419;-86
2021/01/26 01:43:20;;;;;;;18.97;4.13;;;;;;;;;;5136966;27;20057;-86
2021/01/26 01:45:46;;;;;;;15.10;4.27;;;;;;;;;;5134988;27;20497;-86
2021/01/26 01:48:17;;;;;;;20.33;4.43;;;;;;;;;;5136085;27;20094;-86
2021/01/26 01:50:45;;;;;;;16.70;4.90;;;;;;;;;;5135850;27;20130;-86
2021/01/26 01:53:23;;;;;;;12.20;3.20;;;;;;;;;;5128214;27;20106;-86
2021/01/26 01:55:54;;;;;;;19.10;4.00;;;;;;;;;;5132079;27;20023;-86
2021/01/26 01:58:21;;;;;;;18.97;4.37;;;;;;;;;;5135864;27;20023;-85
2021/01/26 02:00:52;;;;;;;19.07;4.27;;;;;;;;;;5135666;27;20011;-86
2021/01/26 02:03:28;;;;;;;18.27;4.10;;;;;;;;;;5135701;27;20019;-86
2021/01/26 02:05:55;;;;;;;16.87;3.97;;;;;;;;;;5135261;27;20031;-86
2021/01/26 02:08:41;;;;;;;22.47;4.97;;;;;;;;;;5135590;27;20051;-86
2021/01/26 02:11:06;;;;;;;21.13;3.70;;;;;;;;;;5133589;27;20537;-85
2021/01/26 02:13:31;;;;;;;22.43;4.07;;;;;;;;;;5123412;27;20023;-86
2021/01/26 02:15:58;;;;;;;15.50;3.50;;;;;;;;;;5135290;27;20030;-86
2021/01/26 02:18:27;;;;;;;22.17;4.30;;;;;;;;;;5135159;27;20094;-85
2021/01/26 02:20:58;;;;;;;15.53;3.30;;;;;;;;;;5135301;27;20055;-86
2021/01/26 02:23:29;;;;;;;18.20;3.47;;;;;;;;;;5135212;27;20462;-86
2021/01/26 02:26:13;;;;;;;19.70;3.30;;;;;;;;;;5135014;27;20026;-86
2021/01/26 02:28:47;;;;;;;16.50;3.43;;;;;;;;;;5136237;27;20369;-86
2021/01/26 02:31:31;;;;;;;16.77;3.33;;;;;;;;;;5135143;27;20114;-86
2021/01/26 02:33:56;;;;;;;15.67;3.50;;;;;;;;;;5134743;27;20023;-86
2021/01/26 02:36:25;;;;;;;16.23;3.63;;;;;;;;;;5161985;27;20029;-86
2021/01/26 02:39:09;;;;;;;21.67;3.27;;;;;;;;;;5134882;27;20478;-86
2021/01/26 02:41:40;;;;;;;20.87;3.60;;;;;;;;;;5136282;27;20015;-86
2021/01/26 02:44:28;;;;;;;18.10;3.57;;;;;;;;;;5134764;27;20486;-86
2021/01/26 02:47:09;;;;;;;15.13;3.37;;;;;;;;;;5134746;27;20019;-85
2021/01/26 02:50:00;;;;;;;15.33;3.20;;;;;;;;;;5134841;27;20026;-86
2021/01/26 02:52:32;;;;;;;16.23;3.00;;;;;;;;;;5103616;27;20040;-86
2021/01/26 02:55:03;;;;;;;16.70;3.42;;;;;;;;;;5134534;27;20553;-86
2021/01/26 02:57:33;;;;;;;17.10;3.33;;;;;;;;;;5132003;27;20114;-86
2021/01/26 03:00:07;;;;;;;21.80;3.20;;;;;;;;;;5134608;27;20015;-86
2021/01/26 03:02:32;;;;;;;19.83;3.83;;;;;;;;;;5134372;27;20015;-86
2021/01/26 03:05:23;;;;;;;19.50;4.03;;;;;;;;;;5134464;27;20377;-86
2021/01/26 03:07:54;;;;;;;17.27;3.57;;;;;;;;;;5130175;27;20032;-86
2021/01/26 03:10:20;;;;;;;19.40;3.23;;;;;;;;;;5134370;27;20110;-85
2021/01/26 03:12:51;;;;;;;19.83;2.90;;;;;;;;;;5134212;27;20011;-86
2021/01/26 03:15:26;;;;;;;27.10;3.47;;;;;;;;;;5134193;27;20027;-86
2021/01/26 03:17:52;;;;;;;17.83;2.77;;;;;;;;;;5134177;27;20035;-86
2021/01/26 03:20:33;;;;;;;20.43;3.13;;;;;;;;;;5128289;27;20020;-86
2021/01/26 03:23:01;;;;;;;16.37;3.17;;;;;;;;;;5148642;27;20112;-86
2021/01/26 03:25:26;;;;;;;17.77;3.20;;;;;;;;;;5133346;27;20026;-86
2021/01/26 03:27:53;;;;;;;13.30;2.77;;;;;;;;;;5134057;27;20537;-86
2021/01/26 03:30:20;;;;;;;19.80;2.53;;;;;;;;;;5133843;27;20021;-86
2021/01/26 03:32:55;;;;;;;13.43;3.10;;;;;;;;;;5133988;27;20026;-86
2021/01/26 03:35:20;;;;;;;15.10;2.90;;;;;;;;;;5135169;27;20026;-86
2021/01/26 03:37:48;;;;;;;15.57;3.13;;;;;;;;;;5133776;27;20437;-86
2021/01/26 03:40:13;;;;;;;14.50;3.07;;;;;;;;;;5131930;27;20046;-86
2021/01/26 03:42:38;;;;;;;12.63;2.50;;;;;;;;;;5121095;27;20019;-86
2021/01/26 03:45:05;;;;;;;18.87;2.53;;;;;;;;;;5133814;27;20110;-86
2021/01/26 03:47:38;;;;;;;18.20;2.50;;;;;;;;;;5133535;27;20454;-86
2021/01/26 03:50:07;;;;;;;20.13;3.03;;;;;;;;;;5133503;27;20035;-86
2021/01/26 03:52:57;;;;;;;13.97;2.60;;;;;;;;;;5119041;27;20445;-86
2021/01/26 03:55:29;;;;;;;18.37;3.00;;;;;;;;;;5133471;27;20054;-86
2021/01/26 03:58:04;;;;;;;16.67;2.72;;;;;;;;;;5134927;27;20019;-86
2021/01/26 04:00:35;;;;;;;17.63;3.20;;;;;;;;;;5133351;27;20101;-85
2021/01/26 04:03:20;;;;;;;18.70;3.07;;;;;;;;;;5133453;27;20015;-86
2021/01/26 04:05:52;;;;;;;20.10;2.77;;;;;;;;;;5132561;27;20034;-86
2021/01/26 04:08:35;;;;;;;14.38;2.92;;;;;;;;;;5134584;27;20011;-86
2021/01/26 04:11:06;;;;;;;19.73;3.43;;;;;;;;;;5132984;27;20034;-85
2021/01/26 04:13:35;;;;;;;21.13;3.40;;;;;;;;;;5133422;27;20025;-86
2021/01/26 04:16:02;;;;;;;26.83;4.43;;;;;;;;;;5133009;27;20488;-86
2021/01/26 04:18:29;;;;;;;22.83;3.67;;;;;;;;;;5133122;27;20023;-86
2021/01/26 04:20:55;;;;;;;14.03;4.00;;;;;;;;;;5133176;27;20027;-86
2021/01/26 04:23:20;;;;;;;17.83;3.63;;;;;;;;;;5133046;28;20444;-85
2021/01/26 04:25:46;;;;;;;16.00;3.07;;;;;;;;;;5134553;27;20466;-86
2021/01/26 04:28:14;;;;;;;19.00;3.43;;;;;;;;;;5133136;28;20016;-86
2021/01/26 04:30:39;;;;;;;15.30;3.07;;;;;;;;;;5133260;28;20023;-86
2021/01/26 04:33:09;;;;;;;24.13;3.63;;;;;;;;;;5133179;28;20389;-86
2021/01/26 04:35:35;;;;;;;11.13;2.77;;;;;;;;;;5132774;28;20011;-86
2021/01/26 04:38:01;;;;;;;16.67;4.30;;;;;;;;;;5133005;28;20381;-86
2021/01/26 04:40:27;;;;;;;18.10;4.07;;;;;;;;;;5132753;28;20026;-86
2021/01/26 04:43:07;;;;;;;17.27;3.30;;;;;;;;;;5133281;28;20088;-86
2021/01/26 04:45:38;;;;;;;11.60;2.83;;;;;;;;;;5132849;28;20026;-86
2021/01/26 04:48:10;;;;;;;17.03;3.07;;;;;;;;;;5134281;27;20011;-86
2021/01/26 04:50:44;;;;;;;14.20;3.30;;;;;;;;;;5132327;28;20030;-86
2021/01/26 04:53:12;;;;;;;9.80;2.20;;;;;;;;;;5132887;28;20738;-86
2021/01/26 04:55:50;;;;;;;13.90;2.97;;;;;;;;;;5132704;28;20018;-86
2021/01/26 04:58:34;;;;;;;12.20;2.77;;;;;;;;;;5133645;28;20484;-86
2021/01/26 05:01:02;;;;;;;16.60;3.30;;;;;;;;;;5133972;28;20003;-86
2021/01/26 05:03:43;;;;;;;19.00;4.10;;;;;;;;;;5132816;28;20411;-86
2021/01/26 05:06:10;;;;;;;11.97;3.70;;;;;;;;;;5132685;28;20062;-85
2021/01/26 05:08:37;;;;;;;15.90;3.10;;;;;;;;;;5134426;27;20079;-86
2021/01/26 05:11:09;;;;;;;19.27;3.30;;;;;;;;;;5132647;28;20393;-85
2021/01/26 05:13:47;;;;;;;11.75;2.95;;;;;;;;;;5132839;28;20026;-86
2021/01/26 05:16:21;;;;;;;20.03;3.53;;;;;;;;;;5115927;28;20055;-85
2021/01/26 05:19:05;;;;;;;12.43;3.00;;;;;;;;;;5132735;28;20015;-86
2021/01/26 05:21:36;;;;;;;19.30;3.17;;;;;;;;;;5133802;27;20011;-85
2021/01/26 05:24:12;;;;;;;17.13;2.80;;;;;;;;;;5136446;27;20022;-85
2021/01/26 05:26:37;;;;;;;13.13;2.87;;;;;;;;;;5136216;27;20051;-86
2021/01/26 05:29:02;;;;;;;17.77;3.00;;;;;;;;;;5136422;27;20518;-86
2021/01/26 05:31:28;;;;;;;13.23;3.30;;;;;;;;;;5136336;27;20029;-86
2021/01/26 05:34:08;;;;;;;22.47;3.50;;;;;;;;;;5137192;27;20011;-86
2021/01/26 05:36:34;;;;;;;15.43;3.57;;;;;;;;;;5136227;27;20023;-86
2021/01/26 05:38:59;;;;;;;12.73;3.63;;;;;;;;;;5135996;27;20023;-86
2021/01/26 05:41:25;;;;;;;11.07;2.73;;;;;;;;;;5137480;27;20094;-85
2021/01/26 05:43:52;;;;;;;16.40;4.03;;;;;;;;;;5135933;27;20481;-86
2021/01/26 05:46:31;;;;;;;13.77;3.07;;;;;;;;;;5136087;27;20015;-86
2021/01/26 05:48:56;;;;;;;16.97;2.90;;;;;;;;;;5135726;27;20409;-86
2021/01/26 05:51:24;;;;;;;13.20;3.40;;;;;;;;;;5135901;27;20027;-86
2021/01/26 05:53:51;;;;;;;17.63;4.43;;;;;;;;;;5135732;27;20524;-85
2021/01/26 05:56:17;;;;;;;23.23;4.67;;;;;;;;;;5135763;27;20030;-86
2021/01/26 05:58:43;;;;;;;16.97;4.00;;;;;;;;;;5135598;27;20025;-86
2021/01/26 06:01:13;;;;;;;18.23;3.17;;;;;;;;;;5123043;27;20048;-86
2021/01/26 06:03:39;;;;;;;13.87;2.70;;;;;;;;;;5135800;27;20382;-86
2021/01/26 06:06:14;;;;;;;19.20;3.93;;;;;;;;;;5136745;27;20038;-86
2021/01/26 06:08:49;;;;;;;14.93;3.90;;;;;;;;;;5135611;27;20102;-86
2021/01/26 06:11:15;;;;;;;16.13;3.60;;;;;;;;;;5135349;27;20027;-85
2021/01/26 06:13:41;;;;;;;13.13;3.37;;;;;;;;;;5136734;27;20366;-85
2021/01/26 06:16:19;;;;;;;24.13;3.73;;;;;;;;;;5135238;27;20023;-86
2021/01/26 06:18:54;;;;;;;15.20;3.40;;;;;;;;;;5135884;27;20475;-85
2021/01/26 06:21:20;;;;;;;16.60;3.27;;;;;;;;;;5135274;27;20492;-85
2021/01/26 06:23:45;;;;;;;15.50;3.93;;;;;;;;;;5135329;27;20015;-85
2021/01/26 06:26:12;;;;;;;11.27;3.10;;;;;;;;;;5136369;27;20015;-85
2021/01/26 06:29:01;;;;;;;15.63;3.13;;;;;;;;;;5135121;27;20408;-85
2021/01/26 06:31:35;;;;;;;19.40;3.50;;;;;;;;;;5135172;27;20046;-85
2021/01/26 06:34:10;;;;;;;22.63;3.63;;;;;;;;;;5134872;27;20047;-85
2021/01/26 06:36:51;;;;;;;14.03;3.00;;;;;;;;;;5134954;27;20027;-86
2021/01/26 06:39:34;;;;;;;13.17;3.00;;;;;;;;;;5131622;27;20012;-86
2021/01/26 06:42:09;;;;;;;18.23;4.00;;;;;;;;;;5129877;27;20015;-85
2021/01/26 06:44:43;;;;;;;13.87;3.47;;;;;;;;;;5134950;27;20019;-85
2021/01/26 06:47:17;;;;;;;11.10;3.37;;;;;;;;;;5134693;27;20109;-86
2021/01/26 06:50:01;;;;;;;18.10;4.10;;;;;;;;;;5134818;27;20137;-85
2021/01/26 06:52:29;;;;;;;16.87;3.60;;;;;;;;;;5135805;27;20011;-85
2021/01/26 06:54:54;;;;;;;10.67;4.10;;;;;;;;;;5135644;27;20090;-86
2021/01/26 06:57:34;;;;;;;20.03;4.23;;;;;;;;;;5134432;27;20429;-85
2021/01/26 07:00:08;;;;;;;10.37;3.10;;;;;;;;;;5134551;27;20501;-86
2021/01/26 07:02:48;;;;;;;17.53;3.60;;;;;;;;;;5134065;27;20019;-85
2021/01/26 07:05:32;;;;;;;18.10;3.93;;;;;;;;;;5132311;27;20034;-85
2021/01/26 07:07:57;;;;;;;12.87;3.70;;;;;;;;;;5122724;27;20022;-85
2021/01/26 07:10:28;;;;;;;18.80;3.43;;;;;;;;;;5134159;27;20034;-85
2021/01/26 07:12:54;;;;;;;16.67;3.73;;;;;;;;;;5133555;27;20034;-86
2021/01/26 07:15:31;;;;;;;17.00;3.87;;;;;;;;;;5134532;27;20015;-85
2021/01/26 07:18:15;;;;;;;18.70;3.93;;;;;;;;;;5135285;27;20030;-85
2021/01/26 07:20:40;;;;;;;15.07;3.97;;;;;;;;;;5134014;27;20106;-85
2021/01/26 07:23:19;;;;;;;17.30;4.73;;;;;;;;;;5133945;27;20057;-85
2021/01/26 07:25:56;;;;;;;17.03;4.37;;;;;;;;;;5133814;27;20469;-86
2021/01/26 07:28:36;;;;;;;20.60;4.07;;;;;;;;;;5133827;27;20114;-86
2021/01/26 07:31:08;;;;;;;16.93;4.57;;;;;;;;;;5133840;27;20470;-86
2021/01/26 07:33:53;;;;;;;11.32;3.28;;;;;;;;;;5133402;27;20016;-85
2021/01/26 07:36:29;;;;;;;15.13;3.67;;;;;;;;;;5130561;27;20074;-86
2021/01/26 07:38:57;;;;;;;21.87;4.10;;;;;;;;;;5132334;27;20046;-86
2021/01/26 07:41:22;;;;;;;11.87;3.73;;;;;;;;;;5133777;27;20107;-86
2021/01/26 07:43:52;;;;;;;21.53;4.03;;;;;;;;;;5130631;27;20034;-86
2021/01/26 07:46:27;;;;;;;16.80;3.80;;;;;;;;;;5133695;27;20022;-86
2021/01/26 07:49:11;;;;;;;12.00;4.00;;;;;;;;;;5133159;27;20057;-85
2021/01/26 07:51:40;;;;;;;11.60;3.50;;;;;;;;;;5130546;27;20023;-86
2021/01/26 07:54:10;;;;;;;17.43;2.93;;;;;;;;;;5132625;27;20382;-86
2021/01/26 07:56:37;;;;;;;17.30;3.77;;;;;;;;;;5132925;27;20080;-86
2021/01/26 07:59:24;;;;;;;12.77;3.83;;;;;;;;;;5133343;27;20022;-86
2021/01/26 08:01:51;;;;;;;10.60;3.00;;;;;;;;;;5133534;27;20098;-86
2021/01/26 08:04:17;;;;;;;14.00;3.77;;;;;;;;;;5133196;27;20526;-86
2021/01/26 08:06:42;;;;;;;17.63;3.60;;;;;;;;;;5133260;27;20027;-86
2021/01/26 08:09:18;;;;;;;13.63;3.17;;;;;;;;;;5133099;27;20466;-86
2021/01/26 08:11:55;;;;;;;22.60;3.93;;;;;;;;;;5133296;27;20072;-86
2021/01/26 08:14:24;;;;;;;15.90;3.77;;;;;;;;;;5133146;27;20043;-86
2021/01/26 08:16:54;;;;;;;19.60;3.40;;;;;;;;;;5133039;27;20011;-86
2021/01/26 08:19:36;;;;;;;19.63;3.87;;;;;;;;;;5132881;27;20015;-86
2021/01/26 08:22:18;;;;;;;17.10;4.25;;;;;;;;;;5131289;27;20023;-85
2021/01/26 08:24:45;;;;;;;11.18;3.03;;;;;;;;;;5133113;28;20055;-86
2021/01/26 08:27:28;;;;;;;11.70;3.20;;;;;;;;;;5133170;28;20073;-86
2021/01/26 08:30:01;;;;;;;9.70;3.80;;;;;;;;;;5132997;28;20068;-86
2021/01/26 08:32:26;;;;;;;;;;;;;;;;;;5133554;28;20246;-85
2021/01/26 08:35:02;;;;;;;23.02;4.10;;;;;;;;;;5132698;28;19907;-86
2021/01/26 08:37:43;;;;;;;8.17;3.13;;;;;;;;;;5132409;28;20110;-86
2021/01/26 08:40:17;;;;;;;17.37;4.60;;;;;;;;;;5133848;28;20023;-86
2021/01/26 08:42:42;;;;;;;12.97;4.50;;;;;;;;;;5133984;28;20015;-88
2021/01/26 08:45:16;;;;;;;15.63;3.60;;;;;;;;;;5118543;28;20011;-86
2021/01/26 08:47:48;;;;;;;18.17;4.40;;;;;;;;;;5133942;28;20015;-87
2021/01/26 08:50:13;;;;;;;14.07;4.18;;;;;;;;;;5134008;27;20019;-86
2021/01/26 08:52:39;;;;;;;12.60;4.03;;;;;;;;;;5126637;28;20073;-87
2021/01/26 08:55:04;;;;;;;16.33;4.17;;;;;;;;;;5128662;27;20050;-87
2021/01/26 08:57:29;;;;;;;12.80;3.77;;;;;;;;;;5136812;27;20023;-86
2021/01/26 08:59:55;;;;;;;11.23;3.23;;;;;;;;;;5136812;27;20068;-87
2021/01/26 09:02:39;;;;;;;17.77;3.63;;;;;;;;;;5122465;27;20110;-87
2021/01/26 09:05:05;;;;;;;16.30;3.87;;;;;;;;;;5137996;27;20416;-87
2021/01/26 09:07:49;;;;;;;18.83;4.40;;;;;;;;;;5136742;27;20019;-87
2021/01/26 09:10:40;;;;;;;24.03;4.50;;;;;;;;;;5136732;27;20072;-87
2021/01/26 09:13:14;;;;;;;13.10;3.63;;;;;;;;;;5128914;27;20031;-87
2021/01/26 09:15:52;;;;;;;19.53;3.93;;;;;;;;;;5136456;27;20030;-86
2021/01/26 09:18:18;;;;;;;20.13;3.83;;;;;;;;;;5136605;27;20457;-87
2021/01/26 09:20:43;;;;;;;12.77;3.50;;;;;;;;;;5136215;27;20023;-87
2021/01/26 09:23:09;;;;;;;11.27;3.50;;;;;;;;;;5137876;27;20381;-87
2021/01/26 09:25:37;;;;;;;11.43;3.43;;;;;;;;;;5136396;27;20020;-87
2021/01/26 09:28:02;;;;;;;14.00;4.13;;;;;;;;;;5136604;27;20420;-87
2021/01/26 09:30:29;;;;;;;13.23;3.70;;;;;;;;;;5137359;27;20021;-87
2021/01/26 09:32:54;;;;;;;9.53;3.80;;;;;;;;;;5124642;27;20028;-87
2021/01/26 09:35:25;;;;;;;14.07;4.03;;;;;;;;;;5130073;27;20034;-87
2021/01/26 09:38:00;;;;;;;13.73;3.57;;;;;;;;;;5137565;27;20034;-87
2021/01/26 09:40:26;;;;;;;14.80;3.67;;;;;;;;;;5137186;27;20465;-87
2021/01/26 09:43:03;;;;;;;10.57;3.97;;;;;;;;;;5137150;27;20011;-87
2021/01/26 09:45:28;;;;;;;13.97;3.73;;;;;;;;;;5136018;27;20114;-87
2021/01/26 09:47:53;;;;;;;19.97;5.90;;;;;;;;;;5136377;27;20484;-86
2021/01/26 09:50:19;;;;;;;14.77;4.33;;;;;;;;;;5170506;27;20016;-87
2021/01/26 09:52:44;;;;;;;15.53;3.70;;;;;;;;;;5135940;27;20489;-86
2021/01/26 09:55:12;;;;;;;15.30;4.40;;;;;;;;;;5124369;27;20076;-91
2021/01/26 09:57:38;;;;;;;18.50;4.97;;;;;;;;;;5122097;27;20501;-90
2021/01/26 10:00:09;;;;;;;22.07;4.60;;;;;;;;;;5138035;27;20050;-91
2021/01/26 10:02:35;;;;;;;18.87;4.77;;;;;;;;;;5137711;27;20506;-91
2021/01/26 10:05:00;;;;;;;18.17;5.17;;;;;;;;;;5136671;27;20038;-91
2021/01/26 10:07:25;;;;;;;22.10;4.47;;;;;;;;;;5135560;27;20023;-91
2021/01/26 10:09:51;;;;;;;20.90;4.90;;;;;;;;;;5136550;27;20075;-92
2021/01/26 10:12:33;;;;;;;15.07;4.53;;;;;;;;;;5136611;27;20027;-91
2021/01/26 10:15:09;;;;;;;16.20;4.60;;;;;;;;;;5131550;27;20018;-91
2021/01/26 10:17:53;;;;;;;16.50;4.27;;;;;;;;;;5136355;27;20058;-91
2021/01/26 10:20:27;;;;;;;14.57;4.47;;;;;;;;;;5136269;27;20019;-91
2021/01/26 10:23:03;;;;;;;11.97;3.80;;;;;;;;;;5136229;27;20476;-91
2021/01/26 10:25:29;;;;;;;16.30;4.40;;;;;;;;;;5143114;27;20019;-91
2021/01/26 10:28:04;;;;;;;15.43;3.67;;;;;;;;;;5115731;28;20360;-91
2021/01/26 10:30:29;;;;;;;14.43;3.97;;;;;;;;;;5135486;27;20015;-91
2021/01/26 10:32:54;;;;;;;14.10;3.83;;;;;;;;;;5124141;27;20505;-92
2021/01/26 10:35:22;;;;;;;16.37;3.73;;;;;;;;;;5133231;27;20428;-91
2021/01/26 10:37:48;;;;;;;10.33;3.60;;;;;;;;;;5135785;27;20031;-92
2021/01/26 10:40:13;;;;;;;14.43;3.97;;;;;;;;;;5135921;27;20175;-91
2021/01/26 10:42:39;;;;;;;14.93;3.90;;;;;;;;;;5135836;27;20020;-91
2021/01/26 10:45:05;;;;;;;12.20;2.77;;;;;;;;;;5135160;27;20030;-91
2021/01/26 10:47:32;;;;;;;17.23;3.73;;;;;;;;;;5135461;27;20023;-91
2021/01/26 10:49:58;;;;;;;12.33;3.23;;;;;;;;;;5135612;27;20482;-92
2021/01/26 10:52:43;;;;;;;19.57;3.63;;;;;;;;;;5135681;27;20106;-91
2021/01/26 10:55:10;;;;;;;13.17;3.43;;;;;;;;;;5135590;27;20478;-92
2021/01/26 10:57:35;;;;;;;15.20;3.90;;;;;;;;;;5117270;27;20451;-92
2021/01/26 11:00:00;;;;;;;14.53;4.63;;;;;;;;;;5114999;28;20023;-91
2021/01/26 11:02:26;;;;;;;17.50;3.33;;;;;;;;;;5132398;27;20033;-92
2021/01/26 11:04:51;;;;;;;12.50;3.80;;;;;;;;;;5133516;27;20011;-91
2021/01/26 11:07:16;;;;;;;9.73;3.43;;;;;;;;;;5136504;27;20027;-92
2021/01/26 11:09:41;;;;;;;10.07;3.47;;;;;;;;;;5163973;27;20023;-91
2021/01/26 11:12:06;;;;;;;16.87;4.10;;;;;;;;;;5135217;27;20075;-91
2021/01/26 11:14:32;;;;;;;16.87;3.50;;;;;;;;;;5134777;27;20038;-91
2021/01/26 11:16:57;;;;;;;14.07;3.20;;;;;;;;;;5122023;27;20043;-91
2021/01/26 11:19:23;;;;;;;10.57;3.20;;;;;;;;;;5135196;27;20497;-91
2021/01/26 11:21:48;;;;;;;16.67;3.10;;;;;;;;;;5136216;27;20014;-91
2021/01/26 11:24:13;;;;;;;12.80;3.27;;;;;;;;;;5124740;27;20106;-92
2021/01/26 11:26:38;;;;;;;13.43;3.27;;;;;;;;;;5130815;27;20026;-91
2021/01/26 11:29:04;;;;;;;7.97;3.03;;;;;;;;;;5135016;27;20117;-90
2021/01/26 11:31:29;;;;;;;12.70;2.87;;;;;;;;;;5135292;27;20083;-91
2021/01/26 11:33:54;;;;;;;12.40;3.03;;;;;;;;;;5154678;27;20086;-91
2021/01/26 11:36:19;;;;;;;11.23;2.67;;;;;;;;;;5122839;27;20072;-91
2021/01/26 11:38:45;;;;;;;15.27;3.93;;;;;;;;;;5132250;27;20493;-91
2021/01/26 11:41:10;;;;;;;10.00;3.30;;;;;;;;;;5123179;27;20115;-92
2021/01/26 11:43:36;;;;;;;15.43;2.80;;;;;;;;;;5131163;27;20023;-91
2021/01/26 11:46:02;;;;;;;8.97;2.73;;;;;;;;;;5134565;27;20027;-92
2021/01/26 11:48:27;;;;;;;15.43;3.20;;;;;;;;;;5120684;27;20015;-91
2021/01/26 11:50:53;;;;;;;11.47;3.13;;;;;;;;;;5134006;27;20489;-90
2021/01/26 11:53:20;;;;;;;17.53;3.60;;;;;;;;;;5134524;27;20030;-91
2021/01/26 11:55:45;;;;;;;9.40;3.50;;;;;;;;;;5168821;27;20382;-91
2021/01/26 11:58:11;;;;;;;14.50;2.83;;;;;;;;;;5134877;27;20034;-91
2021/01/26 12:00:37;;;;;;;11.83;3.23;;;;;;;;;;5134302;27;20027;-90
2021/01/26 12:03:03;;;;;;;10.57;3.63;;;;;;;;;;5138160;27;20527;-91
2021/01/26 12:05:29;;;;;;;10.80;2.80;;;;;;;;;;5134208;27;20015;-91
2021/01/26 12:07:54;;;;;;;11.37;3.60;;;;;;;;;;5134276;27;20026;-91
2021/01/26 12:10:20;;;;;;;10.83;3.40;;;;;;;;;;5133934;27;20023;-91
2021/01/26 12:12:45;;;;;;;8.30;2.70;;;;;;;;;;5130101;27;20023;-91
2021/01/26 12:15:13;;;;;;;16.33;3.70;;;;;;;;;;5123624;27;20019;-90
2021/01/26 12:17:39;;;;;;;13.77;2.90;;;;;;;;;;5134194;27;20019;-90
2021/01/26 12:20:04;;;;;;;19.50;3.17;;;;;;;;;;5135335;27;20026;-92
2021/01/26 12:22:29;;;;;;;9.20;2.93;;;;;;;;;;5133922;27;20374;-90
2021/01/26 12:24:55;;;;;;;11.63;3.07;;;;;;;;;;5132969;27;20025;-89
2021/01/26 12:27:20;;;;;;;7.70;2.10;;;;;;;;;;5134069;28;20118;-90
2021/01/26 12:29:45;;;;;;;10.73;2.50;;;;;;;;;;5132271;27;20087;-91
2021/01/26 12:32:10;;;;;;;9.30;2.67;;;;;;;;;;5127904;28;20051;-91
2021/01/26 12:34:36;;;;;;;9.00;2.50;;;;;;;;;;5126371;28;20019;-91
2021/01/26 12:37:01;;;;;;;9.37;2.53;;;;;;;;;;5135002;27;20356;-91
2021/01/26 12:39:26;;;;;;;10.90;2.53;;;;;;;;;;5167935;27;20030;-92
2021/01/26 12:41:51;;;;;;;5.03;2.07;;;;;;;;;;5133937;28;20029;-92
2021/01/26 12:44:18;;;;;;;6.43;2.30;;;;;;;;;;5133272;28;20023;-91
2021/01/26 12:46:43;;;;;;;8.60;2.37;;;;;;;;;;5133760;27;20079;-91
2021/01/26 12:49:09;;;;;;;14.40;2.40;;;;;;;;;;5120546;28;20474;-92
2021/01/26 12:51:34;;;;;;;10.53;2.57;;;;;;;;;;5133904;27;20019;-90
2021/01/26 12:53:59;;;;;;;5.83;2.20;;;;;;;;;;5131280;28;20019;-90
2021/01/26 12:56:25;;;;;;;9.00;2.97;;;;;;;;;;5133583;28;20076;-89
2021/01/26 12:58:50;;;;;;;13.30;2.13;;;;;;;;;;5134482;28;20054;-91
2021/01/26 13:01:16;;;;;;;9.10;2.33;;;;;;;;;;5134967;28;20529;-90
2021/01/26 13:03:41;;;;;;;8.30;1.93;;;;;;;;;;5133621;28;20102;-90
2021/01/26 13:06:06;;;;;;;9.10;2.70;;;;;;;;;;5119056;28;20042;-90
2021/01/26 13:08:31;;;;;;;6.60;2.70;;;;;;;;;;5133802;28;20041;-90
2021/01/26 13:10:56;;;;;;;11.13;1.73;;;;;;;;;;5133474;28;20042;-90
2021/01/26 13:13:22;;;;;;;6.60;2.27;;;;;;;;;;5124663;28;20073;-90
2021/01/26 13:15:47;;;;;;;9.17;2.33;;;;;;;;;;5123762;28;20023;-90
2021/01/26 13:18:12;;;;;;;9.27;1.93;;;;;;;;;;5133455;28;20110;-89
2021/01/26 13:20:38;;;;;;;6.37;1.70;;;;;;;;;;5133260;28;20130;-90
2021/01/26 13:23:04;;;;;;;10.73;2.23;;;;;;;;;;5132669;28;20023;-88
2021/01/26 13:25:29;;;;;;;8.00;2.67;;;;;;;;;;5133156;28;20019;-91
2021/01/26 13:27:54;;;;;;;9.27;2.90;;;;;;;;;;5144016;27;20023;-90
2021/01/26 13:30:21;;;;;;;9.27;2.27;;;;;;;;;;5135076;27;20105;-90
2021/01/26 13:32:46;;;;;;;7.83;2.17;;;;;;;;;;5133227;28;20077;-88
2021/01/26 13:35:14;;;;;;;10.97;2.73;;;;;;;;;;5132901;28;20404;-90
2021/01/26 13:37:39;;;;;;;8.60;2.50;;;;;;;;;;5133221;28;20050;-90
2021/01/26 13:40:05;;;;;;;8.50;3.10;;;;;;;;;;5133116;28;20016;-89
2021/01/26 13:42:30;;;;;;;8.77;3.43;;;;;;;;;;5135016;27;20110;-91
2021/01/26 13:44:56;;;;;;;8.07;3.37;;;;;;;;;;5158505;27;20023;-90
2021/01/26 13:47:21;;;;;;;8.67;3.30;;;;;;;;;;5136437;27;20022;-90
2021/01/26 13:49:46;;;;;;;7.10;3.27;;;;;;;;;;5136884;27;20027;-91
2021/01/26 13:52:11;;;;;;;9.73;3.20;;;;;;;;;;5136484;27;20034;-91
2021/01/26 13:54:39;;;;;;;9.77;2.97;;;;;;;;;;5136714;27;20050;-91
2021/01/26 13:57:04;;;;;;;15.17;3.50;;;;;;;;;;5136476;27;20420;-90
2021/01/26 13:59:29;;;;;;;6.33;3.10;;;;;;;;;;5136824;27;20024;-91
2021/01/26 14:01:54;;;;;;;8.10;3.40;;;;;;;;;;5136732;27;20122;-91
2021/01/26 14:04:19;;;;;;;10.37;3.53;;;;;;;;;;5132049;27;20026;-91
2021/01/26 14:06:45;;;;;;;11.87;3.90;;;;;;;;;;5126687;27;20076;-89
2021/01/26 14:09:15;;;;;;;11.97;3.83;;;;;;;;;;5136132;27;20512;-89
2021/01/26 14:11:40;;;;;;;15.50;4.30;;;;;;;;;;5136567;27;20020;-91
2021/01/26 14:14:05;;;;;;;13.93;4.10;;;;;;;;;;5129075;27;20030;-91
2021/01/26 14:16:30;;;;;;;8.83;3.60;;;;;;;;;;5121721;27;20016;-90
2021/01/26 14:18:56;;;;;;;14.13;4.00;;;;;;;;;;5136672;27;20023;-92
2021/01/26 14:21:21;;;;;;;10.33;4.00;;;;;;;;;;5136173;27;20102;-91
2021/01/26 14:23:46;;;;;;;7.67;3.03;;;;;;;;;;5136313;27;20026;-91
2021/01/26 14:26:12;;;;;;;13.10;4.00;;;;;;;;;;5136405;27;20481;-91
2021/01/26 14:28:37;;;;;;;12.53;3.57;;;;;;;;;;5122838;27;20541;-90
2021/01/26 14:31:02;;;;;;;9.50;3.40;;;;;;;;;;5130112;27;20173;-92
2021/01/26 14:33:28;;;;;;;12.43;3.50;;;;;;;;;;5122107;27;20098;-91
2021/01/26 14:35:53;;;;;;;9.00;3.40;;;;;;;;;;5135918;27;20015;-90
2021/01/26 14:38:18;;;;;;;6.57;2.93;;;;;;;;;;5135901;27;20072;-90
2021/01/26 14:40:43;;;;;;;10.27;2.93;;;;;;;;;;5128804;27;20431;-92
2021/01/26 14:43:09;;;;;;;9.50;2.73;;;;;;;;;;5135850;27;20098;-90